Time;durP1;ratioP1;P1;durP2;ratioP2;P2;SDS_P1;SDS_P2;PMS_P1;PMS_P2;Temp;Humidity;BMP_temperature;BMP_pressure;BME280_temperature;BME280_humidity;BME280_pressure;Samples;Min_cycle;Max_cycle;Signal;HPM_P1;HPM_P2
2021/11/25 00:00:30;;;;;;;16.60;9.95;;;1.10;99.90;;;;;;5030464;28;20216;-70
2021/11/25 00:02:56;;;;;;;18.42;12.52;;;1.00;99.90;;;;;;5029103;28;20324;-69
2021/11/25 00:05:23;;;;;;;16.80;11.02;;;1.00;99.90;;;;;;5030172;28;20213;-71
2021/11/25 00:07:52;;;;;;;15.65;10.55;;;1.10;99.90;;;;;;5030269;28;20225;-70
2021/11/25 00:10:18;;;;;;;18.67;11.15;;;1.00;99.90;;;;;;5029869;28;20212;-70
2021/11/25 00:12:46;;;;;;;16.42;10.10;;;1.00;99.90;;;;;;5029551;28;20201;-70
2021/11/25 00:15:14;;;;;;;17.27;10.55;;;1.10;99.90;;;;;;5053704;22;20239;-68
2021/11/25 00:17:41;;;;;;;20.70;11.57;;;1.10;99.90;;;;;;5050470;28;20228;-68
2021/11/25 00:20:11;;;;;;;18.58;10.70;;;1.10;99.90;;;;;;5050464;28;20208;-68
2021/11/25 00:22:38;;;;;;;18.85;10.55;;;1.00;99.90;;;;;;5050221;28;21065;-68
2021/11/25 00:25:08;;;;;;;17.05;11.00;;;1.00;99.90;;;;;;5050727;28;20208;-68
2021/11/25 00:27:35;;;;;;;17.90;10.32;;;1.00;99.90;;;;;;5051414;28;20794;-68
2021/11/25 00:30:01;;;;;;;15.20;11.30;;;1.00;99.90;;;;;;5052586;28;20205;-68
2021/11/25 00:32:28;;;;;;;23.83;10.80;;;1.00;99.90;;;;;;5051383;28;20565;-68
2021/11/25 00:34:55;;;;;;;15.82;11.77;;;1.00;99.90;;;;;;5052779;28;20200;-68
2021/11/25 00:37:22;;;;;;;19.42;11.77;;;1.10;99.90;;;;;;5052058;28;20760;-67
2021/11/25 00:39:48;;;;;;;16.85;11.77;;;1.00;99.90;;;;;;5052688;28;20561;-68
2021/11/25 00:42:16;;;;;;;17.75;12.38;;;1.10;99.90;;;;;;5045619;28;20194;-67
2021/11/25 00:44:43;;;;;;;17.77;10.85;;;1.10;99.90;;;;;;5032565;28;20226;-68
2021/11/25 00:47:10;;;;;;;14.02;10.07;;;1.00;99.90;;;;;;5032066;28;20222;-67
2021/11/25 00:49:37;;;;;;;14.20;9.80;;;1.00;99.90;;;;;;5032511;28;20208;-68
2021/11/25 00:52:04;;;;;;;18.95;10.57;;;1.00;99.90;;;;;;5031691;28;20583;-68
2021/11/25 00:54:31;;;;;;;17.35;11.95;;;1.00;99.90;;;;;;5032070;28;20260;-68
2021/11/25 00:56:58;;;;;;;15.65;10.20;;;1.10;99.90;;;;;;5032174;28;20232;-68
2021/11/25 00:59:26;;;;;;;16.13;10.90;;;1.00;99.90;;;;;;5031802;28;20212;-68
2021/11/25 01:01:53;;;;;;;16.45;10.10;;;1.00;99.90;;;;;;5031886;28;20201;-67
2021/11/25 01:04:19;;;;;;;18.85;12.10;;;1.10;99.90;;;;;;5031478;28;20222;-68
2021/11/25 01:06:46;;;;;;;15.02;10.18;;;1.10;99.90;;;;;;5032141;28;20212;-67
2021/11/25 01:09:13;;;;;;;16.15;10.82;;;1.10;99.90;;;;;;5031767;28;20205;-68
2021/11/25 01:11:39;;;;;;;14.32;9.63;;;1.10;99.90;;;;;;5031839;28;20197;-68
2021/11/25 01:14:06;;;;;;;18.48;10.98;;;1.10;99.90;;;;;;5031475;28;20204;-68
2021/11/25 01:16:34;;;;;;;19.42;10.98;;;1.10;99.90;;;;;;5031848;28;20204;-68
2021/11/25 01:19:01;;;;;;;16.92;11.40;;;1.10;99.90;;;;;;5031660;28;20209;-68
2021/11/25 01:21:28;;;;;;;16.83;10.85;;;1.00;99.90;;;;;;5031290;28;20202;-68
2021/11/25 01:23:54;;;;;;;18.58;11.02;;;1.10;99.90;;;;;;5031964;28;20236;-68
2021/11/25 01:26:21;;;;;;;17.63;11.40;;;1.10;99.90;;;;;;5031709;28;20213;-68
2021/11/25 01:28:48;;;;;;;21.42;10.32;;;1.10;99.90;;;;;;5032616;28;20267;-68
2021/11/25 01:31:15;;;;;;;16.40;11.30;;;1.10;99.90;;;;;;5031772;28;20213;-68
2021/11/25 01:33:43;;;;;;;16.92;10.82;;;1.10;99.90;;;;;;5032499;28;20201;-68
2021/11/25 01:36:09;;;;;;;15.25;10.40;;;1.10;99.90;;;;;;5031978;28;20209;-68
2021/11/25 01:38:36;;;;;;;20.35;11.15;;;1.10;99.90;;;;;;5032466;28;20264;-68
2021/11/25 01:41:03;;;;;;;18.08;11.70;;;1.10;99.90;;;;;;5031024;28;20209;-68
2021/11/25 01:43:30;;;;;;;16.38;10.50;;;1.10;99.90;;;;;;5030553;28;20225;-68
2021/11/25 01:45:59;;;;;;;14.73;9.88;;;1.10;99.90;;;;;;5031828;28;20665;-68
2021/11/25 01:48:26;;;;;;;21.83;11.70;;;1.10;99.90;;;;;;5031070;28;20633;-68
2021/11/25 01:50:54;;;;;;;17.77;10.90;;;1.10;99.90;;;;;;5031020;28;20263;-68
2021/11/25 01:53:21;;;;;;;16.58;11.20;;;1.10;99.90;;;;;;5030962;28;20299;-68
2021/11/25 01:55:49;;;;;;;17.55;12.13;;;1.10;99.90;;;;;;5031747;28;20229;-68
2021/11/25 01:58:17;;;;;;;20.67;12.25;;;1.10;99.90;;;;;;5030824;28;20238;-68
2021/11/25 02:00:48;;;;;;;15.90;10.88;;;1.10;99.90;;;;;;5031010;28;20206;-68
2021/11/25 02:03:16;;;;;;;18.52;11.60;;;1.10;99.90;;;;;;5030676;28;20221;-68
2021/11/25 02:05:43;;;;;;;22.38;12.07;;;1.10;99.90;;;;;;5031138;28;20213;-68
2021/11/25 02:08:11;;;;;;;19.55;11.80;;;1.10;99.90;;;;;;5030977;28;20228;-68
2021/11/25 02:10:42;;;;;;;18.00;11.32;;;1.10;99.90;;;;;;5030784;28;20205;-68
2021/11/25 02:13:10;;;;;;;20.23;11.90;;;1.10;99.90;;;;;;5030512;28;20202;-68
2021/11/25 02:15:38;;;;;;;18.17;12.00;;;1.10;99.90;;;;;;5030707;28;20641;-68
2021/11/25 02:18:07;;;;;;;18.00;11.57;;;1.10;99.90;;;;;;5030783;28;20643;-68
2021/11/25 02:20:36;;;;;;;19.90;12.20;;;1.10;99.90;;;;;;5030852;28;20669;-68
2021/11/25 02:23:03;;;;;;;16.75;11.45;;;1.10;99.90;;;;;;5030843;28;20560;-68
2021/11/25 02:25:30;;;;;;;17.70;11.73;;;1.10;99.90;;;;;;5030613;28;20201;-68
2021/11/25 02:27:57;;;;;;;20.90;11.30;;;1.10;99.90;;;;;;5030600;28;20224;-68
2021/11/25 02:30:25;;;;;;;17.85;11.40;;;1.10;99.90;;;;;;5030698;28;20210;-68
2021/11/25 02:32:52;;;;;;;17.58;12.02;;;1.10;99.90;;;;;;5030180;28;20201;-68
2021/11/25 02:35:21;;;;;;;16.75;11.05;;;1.10;99.90;;;;;;5030588;28;20549;-68
2021/11/25 02:37:50;;;;;;;19.10;11.35;;;1.10;99.90;;;;;;5030545;28;20728;-68
2021/11/25 02:40:21;;;;;;;20.85;12.35;;;1.10;99.90;;;;;;5030723;28;20228;-68
2021/11/25 02:42:51;;;;;;;19.60;12.55;;;1.00;99.90;;;;;;5030493;28;20870;-68
2021/11/25 02:45:19;;;;;;;18.88;12.75;;;0.90;99.90;;;;;;5030234;28;20222;-67
2021/11/25 02:47:46;;;;;;;23.77;12.85;;;0.90;99.90;;;;;;5030762;28;20218;-68
2021/11/25 02:50:14;;;;;;;19.33;10.68;;;0.90;99.90;;;;;;5030598;28;20206;-68
2021/11/25 02:52:41;;;;;;;21.00;13.30;;;0.90;99.90;;;;;;5030228;28;20208;-68
2021/11/25 02:55:11;;;;;;;19.67;12.05;;;0.70;99.90;;;;;;5031449;28;20201;-68
2021/11/25 02:57:38;;;;;;;18.20;11.60;;;0.70;99.90;;;;;;5034517;28;20712;-68
2021/11/25 03:00:09;;;;;;;18.42;12.32;;;0.80;99.90;;;;;;5034345;28;20205;-68
2021/11/25 03:02:35;;;;;;;18.83;12.30;;;0.80;99.90;;;;;;5034351;28;20202;-68
2021/11/25 03:05:02;;;;;;;17.77;12.13;;;0.70;99.90;;;;;;5034419;28;20225;-68
2021/11/25 03:07:29;;;;;;;19.42;12.40;;;0.80;99.90;;;;;;5033935;28;20225;-68
2021/11/25 03:09:55;;;;;;;21.60;13.23;;;0.80;99.90;;;;;;5034518;28;20206;-68
2021/11/25 03:12:23;;;;;;;19.45;11.07;;;0.70;99.90;;;;;;5033370;28;20206;-68
2021/11/25 03:14:50;;;;;;;22.08;13.13;;;0.60;99.90;;;;;;5034224;28;20711;-67
2021/11/25 03:17:17;;;;;;;17.13;11.15;;;0.60;99.90;;;;;;5033732;28;20284;-68
2021/11/25 03:19:44;;;;;;;21.75;12.63;;;0.60;99.90;;;;;;5034389;28;20206;-67
2021/11/25 03:22:10;;;;;;;23.92;12.57;;;0.60;99.90;;;;;;5033500;28;20201;-67
2021/11/25 03:24:37;;;;;;;18.00;11.23;;;0.60;99.90;;;;;;5033745;28;20644;-68
2021/11/25 03:27:04;;;;;;;18.83;11.30;;;0.70;99.90;;;;;;5033952;28;20222;-68
2021/11/25 03:29:32;;;;;;;20.80;12.60;;;0.80;99.90;;;;;;5033709;28;20259;-68
2021/11/25 03:31:59;;;;;;;21.88;12.40;;;0.80;99.90;;;;;;5033438;28;20801;-68
2021/11/25 03:34:26;;;;;;;18.05;12.30;;;0.90;99.90;;;;;;5033414;28;20202;-68
2021/11/25 03:36:53;;;;;;;22.17;12.85;;;0.90;99.90;;;;;;5033824;28;20217;-68
2021/11/25 03:39:19;;;;;;;19.60;12.20;;;1.00;99.90;;;;;;5033425;28;20202;-68
2021/11/25 03:41:46;;;;;;;21.58;11.73;;;1.00;99.90;;;;;;5033399;28;20197;-68
2021/11/25 03:44:13;;;;;;;18.63;12.27;;;1.00;99.90;;;;;;5033531;28;20239;-68
2021/11/25 03:46:41;;;;;;;24.33;13.70;;;1.00;99.90;;;;;;5033364;28;20669;-68
2021/11/25 03:49:08;;;;;;;21.20;11.88;;;1.00;99.90;;;;;;5033598;28;20202;-68
2021/11/25 03:51:35;;;;;;;19.25;12.43;;;1.00;99.90;;;;;;5032905;28;20229;-68
2021/11/25 03:54:02;;;;;;;19.27;12.00;;;1.00;99.90;;;;;;5033470;28;20204;-68
2021/11/25 03:56:28;;;;;;;21.60;13.25;;;1.00;99.90;;;;;;5033085;28;20234;-68
2021/11/25 03:58:55;;;;;;;20.23;12.30;;;1.00;99.90;;;;;;5033485;28;20197;-68
2021/11/25 04:01:23;;;;;;;20.38;12.45;;;1.00;99.90;;;;;;5032778;28;20201;-68
2021/11/25 04:03:51;;;;;;;20.88;11.48;;;0.90;99.90;;;;;;5033036;28;20206;-68
2021/11/25 04:06:18;;;;;;;19.70;12.90;;;0.80;99.90;;;;;;5032503;28;20198;-68
2021/11/25 04:08:45;;;;;;;19.25;12.35;;;0.70;99.90;;;;;;5032906;28;20236;-68
2021/11/25 04:11:12;;;;;;;21.13;13.15;;;0.60;99.90;;;;;;5032666;28;20259;-68
2021/11/25 04:13:39;;;;;;;22.45;12.88;;;0.50;99.90;;;;;;5032967;28;20205;-67
2021/11/25 04:16:06;;;;;;;23.13;12.93;;;0.50;99.90;;;;;;5033062;28;20624;-68
2021/11/25 04:18:32;;;;;;;22.15;13.48;;;0.50;99.90;;;;;;5032842;28;20229;-68
2021/11/25 04:21:00;;;;;;;20.50;12.05;;;0.50;99.90;;;;;;5032659;28;20202;-68
2021/11/25 04:23:27;;;;;;;21.35;13.25;;;0.40;99.90;;;;;;5032739;28;20216;-67
2021/11/25 04:25:54;;;;;;;22.58;13.80;;;0.50;99.90;;;;;;5032711;28;20217;-68
2021/11/25 04:28:20;;;;;;;20.50;12.13;;;0.50;99.90;;;;;;5032694;28;20245;-67
2021/11/25 04:35:27;;;;;;;23.05;12.65;;;0.50;99.90;;;;;;5032570;28;20201;-68
2021/11/25 04:36:25;;;;;;;24.15;13.18;;;0.60;99.90;;;;;;5031170;28;20279;-68
2021/11/25 04:38:52;;;;;;;19.27;11.88;;;0.60;99.90;;;;;;5020981;28;20225;-68
2021/11/25 04:41:19;;;;;;;24.30;14.23;;;0.60;99.90;;;;;;5020771;28;20194;-68
2021/11/25 04:43:45;;;;;;;21.10;11.88;;;0.50;99.90;;;;;;5023170;28;20204;-68
2021/11/25 04:46:12;;;;;;;23.42;13.63;;;0.50;99.90;;;;;;5020485;28;20222;-68
2021/11/25 04:48:39;;;;;;;21.58;12.88;;;0.50;99.90;;;;;;5021178;28;20229;-68
2021/11/25 04:51:05;;;;;;;21.60;11.75;;;0.60;99.90;;;;;;5021709;28;20221;-68
2021/11/25 04:53:34;;;;;;;21.73;13.50;;;0.60;99.90;;;;;;5018652;28;20202;-68
2021/11/25 04:56:01;;;;;;;25.15;14.15;;;0.70;99.90;;;;;;5026493;28;20658;-68
2021/11/25 04:58:28;;;;;;;20.38;13.68;;;0.70;99.90;;;;;;5022708;28;20233;-68
2021/11/25 05:00:54;;;;;;;21.73;12.57;;;0.70;99.90;;;;;;5029018;28;20202;-67
2021/11/25 05:03:21;;;;;;;21.55;14.18;;;0.60;99.90;;;;;;5031505;28;20205;-68
2021/11/25 05:05:48;;;;;;;20.90;12.23;;;0.60;99.90;;;;;;5031431;28;20853;-68
2021/11/25 05:08:14;;;;;;;19.23;13.30;;;0.60;99.90;;;;;;5031450;28;20233;-68
2021/11/25 05:10:42;;;;;;;19.50;11.98;;;0.60;99.90;;;;;;5031555;28;20205;-68
2021/11/25 05:13:09;;;;;;;19.30;12.13;;;0.60;99.90;;;;;;5031246;28;20198;-67
2021/11/25 05:15:37;;;;;;;23.90;13.25;;;0.50;99.90;;;;;;5031218;28;20210;-68
2021/11/25 05:18:04;;;;;;;24.38;13.95;;;0.50;99.90;;;;;;5031360;28;20457;-67
2021/11/25 05:20:30;;;;;;;22.73;13.73;;;0.50;99.90;;;;;;5031424;28;20206;-67
2021/11/25 05:22:57;;;;;;;27.23;16.08;;;0.50;99.90;;;;;;5031144;28;20213;-67
2021/11/25 05:25:24;;;;;;;22.65;12.90;;;0.50;99.90;;;;;;5031348;28;20225;-67
2021/11/25 05:27:53;;;;;;;22.60;14.05;;;0.60;99.90;;;;;;5031308;28;20233;-67
2021/11/25 05:30:21;;;;;;;21.40;13.65;;;0.50;99.90;;;;;;5030114;28;20193;-67
2021/11/25 05:32:48;;;;;;;20.20;12.95;;;0.60;99.90;;;;;;5030788;28;20225;-67
2021/11/25 05:35:16;;;;;;;21.48;12.98;;;0.60;99.90;;;;;;5030976;28;20224;-67
2021/11/25 05:37:43;;;;;;;20.63;13.43;;;0.60;99.90;;;;;;5031431;28;20222;-68
2021/11/25 05:40:12;;;;;;;19.50;13.07;;;0.60;99.90;;;;;;5030931;28;20202;-67
2021/11/25 05:42:38;;;;;;;19.67;11.77;;;0.60;99.90;;;;;;5030744;28;20210;-67
2021/11/25 05:45:09;;;;;;;22.02;12.77;;;0.50;99.90;;;;;;5030848;28;20233;-67
2021/11/25 05:47:38;;;;;;;19.35;11.80;;;0.50;99.90;;;;;;5031016;28;20225;-67
2021/11/25 05:50:07;;;;;;;23.67;13.77;;;0.50;99.90;;;;;;5025034;28;20245;-67
2021/11/25 05:52:33;;;;;;;21.25;12.60;;;0.60;99.90;;;;;;5019295;28;20213;-67
2021/11/25 05:55:00;;;;;;;21.50;12.75;;;0.60;99.90;;;;;;5020677;28;20237;-68
2021/11/25 05:57:27;;;;;;;21.55;13.43;;;0.60;99.90;;;;;;5020944;28;20229;-67
2021/11/25 05:59:54;;;;;;;21.55;12.70;;;0.60;99.90;;;;;;5020083;28;20684;-67
2021/11/25 06:02:22;;;;;;;21.48;13.05;;;0.60;99.90;;;;;;5020381;28;20221;-67
2021/11/25 06:04:48;;;;;;;26.42;13.32;;;0.60;99.90;;;;;;5019865;28;20231;-67
2021/11/25 06:07:15;;;;;;;18.92;12.48;;;0.60;99.90;;;;;;5020372;28;20218;-67
2021/11/25 06:09:42;;;;;;;21.48;13.45;;;0.60;99.90;;;;;;5020924;28;20206;-67
2021/11/25 06:12:09;;;;;;;21.35;12.95;;;0.50;99.90;;;;;;5018864;28;20202;-67
2021/11/25 06:14:36;;;;;;;20.27;12.65;;;0.60;99.90;;;;;;5047366;22;20673;-93
2021/11/25 06:17:03;;;;;;;18.52;11.35;;;0.60;99.90;;;;;;5032361;28;20212;-93
2021/11/25 06:19:32;;;;;;;25.35;13.40;;;0.60;99.90;;;;;;5028329;28;20228;-93
2021/11/25 06:21:59;;;;;;;23.58;13.07;;;0.60;99.90;;;;;;5013702;28;20215;-93
2021/11/25 06:24:26;;;;;;;22.27;13.15;;;0.60;99.90;;;;;;5013159;28;20207;-94
2021/11/25 06:26:53;;;;;;;25.27;15.38;;;0.70;99.90;;;;;;5014326;28;20203;-94
2021/11/25 06:29:20;;;;;;;25.17;14.13;;;0.70;99.90;;;;;;5013252;28;20702;-94
2021/11/25 06:31:47;;;;;;;25.92;13.85;;;0.70;99.90;;;;;;5013754;28;20691;-93
2021/11/25 06:34:14;;;;;;;28.15;15.85;;;0.70;99.90;;;;;;5013911;28;20202;-93
2021/11/25 06:36:42;;;;;;;21.38;13.77;;;0.70;99.90;;;;;;5015962;28;20218;-94
2021/11/25 06:39:10;;;;;;;20.95;13.55;;;0.70;99.90;;;;;;5016304;28;20208;-93
2021/11/25 06:41:37;;;;;;;21.60;13.05;;;0.70;99.90;;;;;;5015870;28;20198;-93
2021/11/25 06:44:04;;;;;;;22.58;13.85;;;0.80;99.90;;;;;;5016753;28;20206;-93
2021/11/25 06:46:31;;;;;;;24.38;12.73;;;0.80;99.90;;;;;;5020357;28;20707;-94
2021/11/25 06:48:58;;;;;;;21.95;12.68;;;0.80;99.90;;;;;;5019103;28;20203;-94
2021/11/25 06:51:27;;;;;;;25.08;14.05;;;0.80;99.90;;;;;;5020755;28;20622;-95
2021/11/25 06:53:55;;;;;;;27.08;13.77;;;0.80;99.90;;;;;;5020237;28;20202;-94
2021/11/25 06:56:22;;;;;;;22.80;12.90;;;0.70;99.90;;;;;;5020324;28;20226;-94
2021/11/25 06:58:51;;;;;;;20.27;14.07;;;0.70;99.90;;;;;;5016967;28;20206;-92
2021/11/25 07:01:18;;;;;;;23.50;13.20;;;0.70;99.90;;;;;;5022242;28;20194;-92
2021/11/25 07:03:44;;;;;;;24.15;14.77;;;0.70;99.90;;;;;;5033815;28;20209;-92
2021/11/25 07:06:11;;;;;;;20.83;13.13;;;0.60;99.90;;;;;;5033179;28;20229;-93
2021/11/25 07:08:38;;;;;;;19.95;13.30;;;0.60;99.90;;;;;;5032573;28;20206;-93
2021/11/25 07:11:06;;;;;;;25.73;13.23;;;0.60;99.90;;;;;;5031542;28;20197;-93
2021/11/25 07:13:34;;;;;;;24.25;13.57;;;0.70;99.90;;;;;;5033038;28;20212;-92
2021/11/25 07:16:01;;;;;;;25.92;14.07;;;0.70;99.90;;;;;;5029974;28;20233;-92
2021/11/25 07:18:27;;;;;;;23.52;14.55;;;0.80;99.90;;;;;;5032237;28;20194;-92
2021/11/25 07:20:55;;;;;;;25.08;14.55;;;0.80;99.90;;;;;;5036494;28;20201;-92
2021/11/25 07:23:21;;;;;;;23.83;14.50;;;0.60;99.90;;;;;;5046998;28;20671;-91
2021/11/25 07:25:49;;;;;;;24.40;15.63;;;0.60;99.90;;;;;;5036028;28;20240;-93
2021/11/25 07:28:17;;;;;;;22.98;14.60;;;0.60;99.90;;;;;;5034440;28;20237;-93
2021/11/25 07:30:44;;;;;;;22.05;13.45;;;0.60;99.90;;;;;;5033906;28;20210;-90
2021/11/25 07:33:11;;;;;;;25.45;13.07;;;0.60;99.90;;;;;;5033477;28;20209;-91
2021/11/25 07:35:43;;;;;;;22.15;13.05;;;0.60;99.90;;;;;;5033592;28;20764;-93
2021/11/25 07:38:10;;;;;;;23.08;14.43;;;0.60;99.90;;;;;;5033823;28;20263;-92
2021/11/25 07:40:37;;;;;;;25.20;15.20;;;0.60;99.90;;;;;;5032817;28;20300;-90
2021/11/25 07:43:06;;;;;;;21.42;13.25;;;0.60;99.90;;;;;;5035276;28;20241;-91
2021/11/25 07:49:38;;;;;;;23.88;12.70;;;0.80;99.90;;;;;;5054090;28;20201;-93
2021/11/25 07:52:31;;;;;;;27.50;13.60;;;0.90;99.90;;;;;;5055299;28;20201;-92
2021/11/25 07:57:27;;;;;;;23.67;13.88;;;0.90;99.90;;;;;;5040915;28;20633;-70
2021/11/25 07:59:54;;;;;;;24.00;14.65;;;1.00;99.90;;;;;;5031449;28;20204;-70
2021/11/25 08:02:22;;;;;;;23.75;15.18;;;1.00;99.90;;;;;;5030500;28;20205;-70
2021/11/25 08:04:49;;;;;;;25.15;13.80;;;1.00;99.90;;;;;;5025039;28;20206;-70
2021/11/25 08:07:15;;;;;;;21.92;13.27;;;1.10;99.90;;;;;;5011917;28;20226;-70
2021/11/25 08:09:44;;;;;;;21.58;13.82;;;1.00;99.90;;;;;;5011857;28;20241;-70
2021/11/25 08:12:11;;;;;;;24.05;13.30;;;1.00;99.90;;;;;;5011726;28;20606;-70
2021/11/25 08:14:38;;;;;;;21.83;14.85;;;1.00;99.90;;;;;;5011353;28;20198;-70
2021/11/25 08:17:04;;;;;;;21.25;12.55;;;1.00;99.90;;;;;;5012002;28;20219;-71
2021/11/25 08:19:31;;;;;;;22.33;13.32;;;1.00;99.90;;;;;;5011811;28;20206;-70
2021/11/25 08:21:58;;;;;;;26.35;15.60;;;1.00;99.90;;;;;;5011295;28;20202;-70
2021/11/25 08:24:25;;;;;;;28.38;16.02;;;1.10;99.90;;;;;;5012075;28;20202;-71
2021/11/25 08:26:54;;;;;;;22.20;13.68;;;0.90;99.90;;;;;;5011624;28;20230;-70
2021/11/25 08:29:21;;;;;;;24.45;14.20;;;0.90;99.90;;;;;;5025903;28;20209;-71
2021/11/25 08:31:48;;;;;;;26.55;13.50;;;0.80;99.90;;;;;;5031072;28;20205;-71
2021/11/25 08:34:15;;;;;;;23.77;13.98;;;0.80;99.90;;;;;;5031368;28;20202;-71
2021/11/25 08:36:42;;;;;;;25.25;14.90;;;0.90;99.90;;;;;;5031233;28;20193;-71
2021/11/25 08:39:09;;;;;;;23.65;13.45;;;0.90;99.90;;;;;;5031335;28;20198;-71
2021/11/25 08:41:35;;;;;;;21.27;13.85;;;0.90;99.90;;;;;;5030610;28;20676;-70
2021/11/25 08:44:06;;;;;;;26.08;14.85;;;0.90;99.90;;;;;;5032075;28;20201;-71
2021/11/25 08:46:33;;;;;;;23.40;13.38;;;0.80;99.90;;;;;;5033221;28;20229;-71
2021/11/25 08:49:00;;;;;;;24.27;13.40;;;0.90;99.90;;;;;;5032284;28;20202;-71
2021/11/25 08:51:28;;;;;;;23.60;13.80;;;0.90;99.90;;;;;;5030211;28;20343;-71
2021/11/25 08:53:55;;;;;;;22.55;13.80;;;1.00;99.90;;;;;;5030934;28;20221;-70
2021/11/25 08:56:22;;;;;;;20.15;12.30;;;1.00;99.90;;;;;;5042068;28;20244;-70
2021/11/25 08:58:50;;;;;;;19.98;11.63;;;1.10;99.90;;;;;;5050942;28;20241;-70
2021/11/25 09:01:18;;;;;;;23.55;13.98;;;1.10;99.90;;;;;;5051296;28;20216;-71
2021/11/25 09:03:45;;;;;;;20.77;12.07;;;1.20;99.90;;;;;;5051275;28;20201;-70
2021/11/25 09:06:12;;;;;;;25.55;14.05;;;1.30;99.90;;;;;;5051177;28;20294;-71
2021/11/25 09:08:38;;;;;;;23.17;13.25;;;1.30;99.90;;;;;;5068223;28;20221;-71
2021/11/25 09:11:05;;;;;;;23.10;13.15;;;1.20;99.90;;;;;;5069013;28;20212;-71
2021/11/25 09:13:32;;;;;;;21.77;14.23;;;1.20;99.90;;;;;;5069158;28;20188;-71
2021/11/25 09:15:58;;;;;;;23.08;13.75;;;1.20;99.90;;;;;;5069793;28;20216;-71
2021/11/25 09:18:27;;;;;;;22.73;13.07;;;1.30;99.90;;;;;;5070256;28;20223;-71
2021/11/25 09:20:54;;;;;;;20.13;12.88;;;1.30;99.90;;;;;;5062497;28;20201;-71
2021/11/25 09:23:22;;;;;;;22.52;14.68;;;1.30;99.90;;;;;;5050823;28;20295;-71
2021/11/25 09:25:50;;;;;;;23.55;13.77;;;1.40;99.90;;;;;;5050636;28;20221;-71
2021/11/25 09:28:19;;;;;;;22.10;13.85;;;1.40;99.90;;;;;;5049695;28;20575;-71
2021/11/25 09:30:46;;;;;;;22.58;13.93;;;1.40;99.90;;;;;;5050206;28;20205;-71
2021/11/25 09:33:13;;;;;;;22.08;14.20;;;1.40;99.90;;;;;;5049950;28;20201;-71
2021/11/25 09:35:42;;;;;;;24.13;13.13;;;1.50;99.90;;;;;;5049863;28;20201;-71
2021/11/25 09:38:10;;;;;;;21.70;13.43;;;1.50;99.90;;;;;;5050471;28;20221;-71
2021/11/25 09:40:37;;;;;;;26.33;13.70;;;1.50;99.90;;;;;;5049644;28;20237;-71
2021/11/25 09:43:06;;;;;;;23.92;13.57;;;1.60;99.90;;;;;;5049677;28;20216;-71
2021/11/25 09:45:36;;;;;;;24.33;13.70;;;1.60;99.90;;;;;;5049525;28;20204;-71
2021/11/25 09:48:06;;;;;;;21.90;14.68;;;1.60;99.90;;;;;;5050308;28;20762;-71
2021/11/25 09:50:35;;;;;;;26.45;14.10;;;1.60;99.90;;;;;;5049385;28;20201;-71
2021/11/25 09:53:08;;;;;;;19.33;13.35;;;1.50;99.90;;;;;;5049381;28;20555;-70
2021/11/25 09:55:36;;;;;;;24.13;14.75;;;1.50;99.90;;;;;;5048090;28;20597;-71
2021/11/25 09:58:03;;;;;;;27.17;13.70;;;1.40;99.90;;;;;;5049427;28;20217;-71
2021/11/25 10:00:32;;;;;;;23.83;14.57;;;1.40;99.90;;;;;;5049477;28;20205;-71
2021/11/25 10:03:00;;;;;;;25.60;12.65;;;1.40;99.90;;;;;;5049258;28;20205;-71
2021/11/25 10:05:27;;;;;;;26.60;14.63;;;1.50;99.90;;;;;;5048252;28;20362;-71
2021/11/25 10:07:53;;;;;;;23.83;14.13;;;1.50;99.90;;;;;;5049675;28;20232;-71
2021/11/25 10:10:27;;;;;;;26.45;14.38;;;1.60;99.90;;;;;;5039884;28;20190;-70
2021/11/25 10:13:02;;;;;;;26.73;14.80;;;1.60;99.90;;;;;;5036893;28;20197;-71
2021/11/25 10:15:33;;;;;;;24.02;15.02;;;1.60;99.90;;;;;;5039667;28;20207;-71
2021/11/25 10:18:02;;;;;;;25.13;14.52;;;1.70;99.90;;;;;;5039999;28;20227;-71
2021/11/25 10:20:32;;;;;;;20.33;12.73;;;1.70;99.90;;;;;;5034375;28;20190;-70
2021/11/25 10:23:22;;;;;;;26.40;14.32;;;1.80;99.90;;;;;;5028833;28;20202;-71
2021/11/25 10:25:56;;;;;;;25.33;13.50;;;1.80;99.90;;;;;;5029669;28;20715;-70
2021/11/25 10:28:28;;;;;;;20.58;12.93;;;1.80;99.90;;;;;;5028497;28;20221;-70
2021/11/25 10:30:57;;;;;;;18.70;11.85;;;1.80;99.90;;;;;;5029230;28;20210;-71
2021/11/25 10:33:28;;;;;;;19.00;11.98;;;1.80;99.90;;;;;;5028800;28;20206;-71
2021/11/25 10:36:28;;;;;;;23.90;14.27;;;1.70;99.90;;;;;;5029782;28;20292;-71
2021/11/25 10:39:04;;;;;;;22.58;12.95;;;1.80;99.90;;;;;;5029319;28;20205;-70
2021/11/25 10:41:33;;;;;;;24.10;13.70;;;1.80;99.90;;;;;;5028627;28;20576;-71
2021/11/25 10:44:14;;;;;;;23.42;13.30;;;1.80;99.90;;;;;;5029090;28;20565;-71
2021/11/25 10:46:44;;;;;;;24.88;13.85;;;1.90;99.90;;;;;;5028742;28;20221;-70
2021/11/25 10:49:11;;;;;;;24.65;13.35;;;1.90;99.90;;;;;;5029912;28;20304;-71
2021/11/25 10:51:40;;;;;;;24.05;13.27;;;1.90;99.90;;;;;;5028832;28;20217;-71
2021/11/25 10:54:10;;;;;;;20.92;12.50;;;1.90;99.90;;;;;;5029744;28;20202;-70
2021/11/25 10:56:43;;;;;;;21.92;13.90;;;2.00;99.90;;;;;;5028776;28;20216;-71
2021/11/25 10:59:13;;;;;;;26.23;15.68;;;2.00;99.90;;;;;;5028851;28;20312;-71
2021/11/25 11:01:41;;;;;;;27.20;14.85;;;2.10;99.90;;;;;;5029022;28;20234;-71
2021/11/25 11:04:09;;;;;;;22.83;14.27;;;2.10;99.90;;;;;;5046168;28;20573;-71
2021/11/25 11:06:38;;;;;;;23.23;13.48;;;2.20;99.90;;;;;;5048733;28;20217;-72
2021/11/25 11:09:07;;;;;;;25.45;14.45;;;2.20;99.90;;;;;;5049931;28;20231;-70
2021/11/25 11:11:35;;;;;;;23.38;13.15;;;2.20;99.90;;;;;;5048357;28;20562;-70
2021/11/25 11:14:15;;;;;;;25.27;13.48;;;2.20;99.90;;;;;;5049221;28;20216;-71
2021/11/25 11:16:46;;;;;;;21.92;12.77;;;2.10;99.90;;;;;;5049747;28;20204;-71
2021/11/25 11:19:15;;;;;;;24.48;13.05;;;2.00;99.90;;;;;;5052823;28;20197;-71
2021/11/25 11:21:43;;;;;;;21.67;13.63;;;2.00;99.90;;;;;;5051826;28;20208;-71
2021/11/25 11:24:12;;;;;;;21.52;13.38;;;2.00;99.90;;;;;;5052843;28;20212;-70
2021/11/25 11:26:45;;;;;;;22.40;13.45;;;2.00;99.90;;;;;;5052036;28;20750;-71
2021/11/25 11:29:15;;;;;;;27.05;15.43;;;2.10;99.90;;;;;;5052582;28;20205;-71
2021/11/25 11:31:42;;;;;;;26.83;14.32;;;2.20;99.90;;;;;;5052360;28;20212;-71
2021/11/25 11:34:10;;;;;;;24.58;13.82;;;2.20;99.90;;;;;;5052538;28;20217;-70
2021/11/25 11:36:40;;;;;;;22.80;13.93;;;2.20;99.90;;;;;;5052823;28;20202;-71
2021/11/25 11:39:08;;;;;;;26.17;14.07;;;2.30;99.90;;;;;;5052489;28;20224;-70
2021/11/25 11:41:36;;;;;;;27.63;15.32;;;2.30;99.90;;;;;;5051611;28;20211;-71
2021/11/25 11:44:03;;;;;;;26.73;14.60;;;2.40;99.90;;;;;;5052882;28;20236;-70
2021/11/25 11:46:34;;;;;;;25.25;14.95;;;2.50;99.90;;;;;;5051892;28;20227;-71
2021/11/25 11:49:03;;;;;;;24.60;14.00;;;2.50;99.90;;;;;;5053625;28;20236;-71
2021/11/25 11:51:31;;;;;;;23.92;13.45;;;2.60;99.90;;;;;;5052020;28;20213;-71
2021/11/25 11:53:58;;;;;;;23.13;13.98;;;2.60;99.90;;;;;;5052502;28;20247;-70
2021/11/25 11:56:36;;;;;;;32.60;16.23;;;2.60;99.90;;;;;;5049905;28;20331;-71
2021/11/25 11:59:05;;;;;;;24.48;13.18;;;2.60;99.90;;;;;;5052210;28;20550;-71
2021/11/25 12:01:34;;;;;;;21.98;13.80;;;2.70;99.90;;;;;;5051387;28;20201;-71
2021/11/25 12:04:15;;;;;;;20.48;12.77;;;2.70;99.90;;;;;;5051676;28;20255;-71
2021/11/25 12:06:44;;;;;;;23.13;13.45;;;2.80;99.90;;;;;;5051738;28;20221;-70
2021/11/25 12:09:29;;;;;;;22.55;13.02;;;2.90;99.90;;;;;;5051766;28;20201;-71
2021/11/25 12:11:59;;;;;;;23.08;14.13;;;3.00;99.90;;;;;;5051152;28;20212;-71
2021/11/25 12:14:27;;;;;;;26.83;14.65;;;3.00;99.90;;;;;;5051468;28;20205;-70
2021/11/25 12:16:57;;;;;;;18.33;13.48;;;3.00;99.90;;;;;;5051633;28;20217;-70
2021/11/25 12:19:30;;;;;;;21.88;12.90;;;3.00;99.90;;;;;;5051285;28;20201;-71
2021/11/25 12:21:59;;;;;;;20.33;13.77;;;3.00;99.90;;;;;;5051165;28;20683;-71
2021/11/25 12:24:32;;;;;;;20.77;14.02;;;3.00;99.90;;;;;;5047236;28;20221;-71
2021/11/25 12:27:04;;;;;;;25.33;14.25;;;3.00;99.90;;;;;;5050568;28;20225;-71
2021/11/25 12:29:37;;;;;;;19.85;13.25;;;3.00;99.90;;;;;;5050706;28;20244;-71
2021/11/25 12:32:38;;;;;;;24.75;13.10;;;2.90;99.90;;;;;;5050821;28;20201;-72
2021/11/25 12:35:36;;;;;;;17.98;12.60;;;2.90;99.90;;;;;;5006983;28;20216;-71
2021/11/25 12:38:04;;;;;;;25.17;13.75;;;2.90;99.90;;;;;;5051024;28;20214;-72
2021/11/25 12:40:45;;;;;;;20.65;12.52;;;3.00;99.90;;;;;;5050209;28;20205;-71
2021/11/25 12:43:14;;;;;;;21.77;12.73;;;2.90;99.90;;;;;;5053406;28;20251;-72
2021/11/25 12:45:43;;;;;;;24.67;14.27;;;3.00;99.90;;;;;;5050491;28;20208;-72
2021/11/25 12:48:31;;;;;;;20.42;13.40;;;3.00;99.90;;;;;;5050667;28;20603;-71
2021/11/25 12:51:01;;;;;;;20.27;13.95;;;3.00;99.90;;;;;;5050667;28;20208;-71
2021/11/25 12:53:31;;;;;;;21.45;13.05;;;3.00;99.90;;;;;;5050184;28;20232;-71